Domov               UVHVVR             MKGP            O straneh              
ZDRAVSTVENO VARSTVO RASTLIN
  MREŽA AGROMET. POSTAJ
 ► PROGNOSTIČNA OBVESTILA
AGROMETEOROLOŠKI PODATKI -
ARSO
OBVLADOVANJE TVEGANJ ZARADI
NEUGODNIH VREMENSKIH RAZMER
  ► NARAVNE NESREČE
  ► SUŠA/MOČA
  ► NAMAKANJE
  ► ŽLED (gozdarstvo)
KARTOGRAFSKI PRIKAZI
SPLETNE POVEZAVE
PROJEKTI IN PUBLIKACIJE

AGROMETEOROLOŠKA MREŽA: VREMENSKE POSTAJE IN FENOLOŠKA OPAZOVANJA

Pregled podatkov za lokacijo Branik, meteorološka postaja 42394

Pregled senzorjev na lokaciji

ID Ime Zadnja
vrednost
Datum
zadnje
spremembe
Tip
senzorja
2188 Temperatura 2 m ( °C) 16,79 °C 19.8.2017 05:00 50YA
2189 Relativna vlaga 2 m (% RH) 80,05 % RH 19.8.2017 05:00 50YA
2190 Omočenost lista (U) 1 U 19.8.2017 05:00 A730WET
2191 Hitrost vetra (km/h) 0,43 km/h 19.8.2017 05:00 566.2S-176 (200km/h)
2192 Padavine 0.2 mm (mm) 0 mm 19.8.2017 05:00 Rain-O-Matic
2193 Smer vetra (°) 72,23 ° 19.8.2017 05:00 566.2S-130

Pregled podatkov zadnjih 24 ur

Zap.
št.
Datum in čas Branik
Hitrost
vetra
Omočenost
lista
Padavine
0.2
mm
Relativna
vlaga
2
m
Smer
vetra
Temperatura
2
m
0 19.8.2017 04:00 0,43 1 0 80,05 72,23 16,79
1 19.8.2017 03:30 0,21 0 0 75,37 96,88 17,59
2 19.8.2017 03:00 0,7 0 0 75,26 68,63 17,66
3 19.8.2017 02:30 0,12 1 0 80,86 80,91 17,04
4 19.8.2017 02:00 0,41 1 0 81,92 77,08 16,93
5 19.8.2017 01:30 0,12 0 0 77,78 65,24 17,68
6 19.8.2017 01:00 1,66 0 0 76,9 73,5 18
7 19.8.2017 00:30 0,38 1 0 77,69 75,9 18,1
8 19.8.2017 00:00 0,37 2 0 80,16 74,06 17,91
9 18.8.2017 23:30 0,12 1 0 75,55 92,28 18,83
10 18.8.2017 23:00 0,82 1 0 75,25 113,4 19,12
11 18.8.2017 22:30 0,26 8 0 81,19 82,06 18,17
12 18.8.2017 22:00 0,16 8 0 81,25 187,8 18,17
13 18.8.2017 21:30 0,13 2 0 76,09 187,79 18,96
14 18.8.2017 21:00 0,12 1 0 72,2 187,79 19,78
15 18.8.2017 20:30 0,12 0 0 71,54 187,79 20,76
16 18.8.2017 20:00 0,11 0 0 65,62 187,79 22,05
17 18.8.2017 19:30 0,11 0 0 60,21 200,12 24,13
18 18.8.2017 19:00 1,81 0 0 43,26 313,58 27,71
19 18.8.2017 18:30 2,1 0 0 40,21 191,69 29,13
20 18.8.2017 18:00 1,03 0 0 34,37 179,32 30,85
21 18.8.2017 17:30 2,16 0 0 30,38 153,27 31,97
22 18.8.2017 17:00 1,69 0 0 27,34 164,84 33,24
23 18.8.2017 16:30 2,62 0 0 26,62 177,28 34,23
24 18.8.2017 16:00 3,22 0 0 27,53 201,05 34,51
25 18.8.2017 15:30 3,23 0 0 28,67 271,11 34,53
26 18.8.2017 15:00 4,93 0 0 28,02 266,54 34,34
27 18.8.2017 14:30 2,91 0 0 28,15 260,58 34,98
28 18.8.2017 14:00 4,96 0 0 26,3 269,74 34,84
29 18.8.2017 13:30 1,91 0 0 23,83 265,75 35,18
30 18.8.2017 13:00 2,37 0 0 24,62 303,85 34,4
31 18.8.2017 12:30 2,74 0 0 22,8 294,58 34,83
32 18.8.2017 12:00 1,92 0 0 20,84 2,03 34,64
33 18.8.2017 11:30 1,27 0 0 24,91 333,27 34,09
34 18.8.2017 11:00 1,62 0 0 28,09 250,44 33,79
35 18.8.2017 10:30 0,47 0 0 31,24 323 32,72
36 18.8.2017 10:00 0,82 0 0 33,14 352,46 32,84
37 18.8.2017 09:30 0,68 0 0 35,96 89,27 31,96
38 18.8.2017 09:00 0,4 0 0 42,73 170,8 30,47
39 18.8.2017 08:30 0,11 0 0 46,81 75,37 28,51
40 18.8.2017 08:00 0,11 0 0 53,37 75,33 25,58
41 18.8.2017 07:30 0,11 0 0 62,65 75,1 22,67
42 18.8.2017 07:00 0,58 9 0 70,67 84,09 20,21
43 18.8.2017 06:30 0,31 10 0 85,53 73,81 17,66
44 18.8.2017 06:00 0,18 10 0 89,58 85,23 16,79
© 2011 Ministrstvo za kmetijstvo, gozdarstvo in prehrano. Vse pravice pridržane.